Fort Dodge Regional Airport Fort Dodge US
ICAO: KFOD
IATA: FOD
Category: Medium
Scheduled Services: Yes

Elevation: 1156 ft
TransAlt. 18000 ft.

Airport Communications:
AWOS 3:118.775
MINNEAPOLIS CNTR:134
RDO:122.3
CTAF/UNICOM:122.95

KFOD Zoom In..

Runways:

(A) RW 06 length 6547 ft width 150 ft
ILS 109.10 / hdg 63

(B) RW 12 length 5301 ft width 100 ft
---- / hdg 125

(C) RW 24 length 6547 ft width 150 ft
---- / hdg 243

(D) RW 30 length 5301 ft width 100 ft
---- / hdg 305

Location; KFOD
Day. 22 / Time. 01.56 Zulu
* Altimeter: 29.99
* Temperature: 17° c. 62.6°f.
* Wind from: 030° Speed 03 kn.
Dewpoint: 16° c.
Visibility: 10 Statute Miles.
Clouds: Scattered 3600 ft.
Clouds: Broken 4500 ft.

KFOD 220156Z AUTO 03003KT 10SM SCT036 BKN045 17/16 A2999 RMK AO2 SLP182 T01720156


Wind From 030°
Speed 03 kn.

 
 
jpsmedia.com for Web Design SOUNDCLOUD worldairports.se 2018   terms of use